createdAt,value
2019-02-04T00:00:43.707Z,40.90
2019-02-04T00:03:13.622Z,41.68
2019-02-04T00:05:42.556Z,40.20
2019-02-04T00:08:11.584Z,41.15
2019-02-04T00:10:40.543Z,38.28
2019-02-04T00:13:09.522Z,38.80
2019-02-04T00:15:38.498Z,37.30
2019-02-04T00:18:07.552Z,37.88
2019-02-04T00:20:36.630Z,40.10
2019-02-04T00:23:05.697Z,42.45
2019-02-04T00:25:35.195Z,44.25
2019-02-04T00:28:04.147Z,42.10
2019-02-04T00:30:33.191Z,44.00
2019-02-04T00:33:02.997Z,41.85
2019-02-04T00:35:31.886Z,46.02
2019-02-04T00:38:00.782Z,41.98
2019-02-04T00:40:30.212Z,43.92
2019-02-04T00:42:59.431Z,42.13
2019-02-04T00:45:28.664Z,41.15
2019-02-04T00:47:57.574Z,42.13
2019-02-04T00:50:26.535Z,41.50
2019-02-04T00:52:55.486Z,38.50
2019-02-04T00:55:24.803Z,37.97
2019-02-04T00:57:53.612Z,39.15
2019-02-04T01:00:26.755Z,36.85
2019-02-04T01:02:56.091Z,37.28
2019-02-04T01:05:25.598Z,38.37
2019-02-04T01:07:55.274Z,36.33
2019-02-04T01:10:25.883Z,42.50
2019-02-04T01:12:55.028Z,38.35
2019-02-04T01:15:23.922Z,37.13
2019-02-04T01:17:52.770Z,38.78
2019-02-04T01:20:24.303Z,38.65
2019-02-04T01:22:53.551Z,33.78
2019-02-04T01:25:22.557Z,32.65
2019-02-04T01:27:51.518Z,34.35
2019-02-04T01:30:21.631Z,33.92
2019-02-04T01:32:50.634Z,34.60
2019-02-04T01:35:19.633Z,32.78
2019-02-04T01:37:48.799Z,32.70
2019-02-04T01:40:19.886Z,33.38
2019-02-04T01:43:07.909Z,31.60
2019-02-04T01:45:36.758Z,31.87
2019-02-04T01:48:05.874Z,30.35
2019-02-04T01:50:34.810Z,29.70
2019-02-04T01:53:03.766Z,32.05
2019-02-04T01:55:32.570Z,30.30
2019-02-04T01:58:01.443Z,29.35
2019-02-04T02:00:33.291Z,30.97
2019-02-04T02:03:02.509Z,30.00
2019-02-04T02:05:31.558Z,33.70
2019-02-04T02:08:00.962Z,29.37
2019-02-04T02:10:30.066Z,32.05
2019-02-04T02:12:59.099Z,31.82
2019-02-04T02:15:28.109Z,30.00
2019-02-04T02:17:57.118Z,30.65
2019-02-04T02:20:28.622Z,29.07
2019-02-04T02:22:57.610Z,28.35
2019-02-04T02:25:26.732Z,30.05
2019-02-04T02:27:55.795Z,29.05
2019-02-04T02:30:27.674Z,28.60
2019-02-04T02:32:56.635Z,29.37
2019-02-04T02:35:25.659Z,28.98
2019-02-04T02:37:54.705Z,29.48
2019-02-04T02:40:32.053Z,27.75
2019-02-04T02:43:01.516Z,28.25
2019-02-04T02:45:30.653Z,29.05
2019-02-04T02:48:00.028Z,31.90
2019-02-04T02:50:29.151Z,29.80
2019-02-04T02:52:58.152Z,31.70
2019-02-04T02:55:27.525Z,30.90
2019-02-04T02:57:56.907Z,30.27
2019-02-04T03:00:27.674Z,28.83
2019-02-04T03:02:56.721Z,32.80
2019-02-04T03:05:25.850Z,31.77
2019-02-04T03:07:54.869Z,31.90
2019-02-04T03:10:28.975Z,33.45
2019-02-04T03:12:58.029Z,31.00
2019-02-04T03:15:27.160Z,31.95
2019-02-04T03:17:56.216Z,33.42
2019-02-04T03:20:25.335Z,32.50
2019-02-04T03:22:54.384Z,33.88
2019-02-04T03:25:23.809Z,32.43
2019-02-04T03:27:52.752Z,34.87
2019-02-04T03:30:27.591Z,33.73
2019-02-04T03:32:56.733Z,33.38
2019-02-04T03:35:25.740Z,33.35
2019-02-04T03:37:54.777Z,33.98
2019-02-04T03:40:26.465Z,31.93
2019-02-04T03:42:55.629Z,30.55
2019-02-04T03:45:24.780Z,33.18
2019-02-04T03:48:04.233Z,32.45
2019-02-04T03:50:24.799Z,38.75
2019-02-04T03:52:54.404Z,35.68
2019-02-04T03:55:23.414Z,35.23
2019-02-04T03:57:52.448Z,36.98
2019-02-04T04:00:26.754Z,38.53
2019-02-04T04:02:55.812Z,37.50
2019-02-04T04:05:25.191Z,34.53
2019-02-04T04:07:54.245Z,35.48
2019-02-04T04:10:23.250Z,36.50
2019-02-04T04:12:52.355Z,32.93
2019-02-04T04:15:21.375Z,32.53
2019-02-04T04:17:50.374Z,32.48
2019-02-04T04:20:20.168Z,34.80
2019-02-04T04:22:49.172Z,33.43
2019-02-04T04:25:18.370Z,31.63
2019-02-04T04:27:47.653Z,32.65
2019-02-04T04:30:21.977Z,35.73
2019-02-04T04:32:51.037Z,35.65
2019-02-04T04:35:20.080Z,33.78
2019-02-04T04:37:49.180Z,30.72
2019-02-04T04:40:18.647Z,31.97
2019-02-04T04:42:47.746Z,31.30
2019-02-04T04:45:18.719Z,32.65
2019-02-04T04:47:48.109Z,33.92
2019-02-04T04:50:17.230Z,33.30
2019-02-04T04:52:46.289Z,32.73
2019-02-04T04:55:18.518Z,34.83
2019-02-04T04:57:47.544Z,33.98
2019-02-04T05:00:19.415Z,32.80
2019-02-04T05:02:48.436Z,29.75
2019-02-04T05:05:17.436Z,32.17
2019-02-04T05:07:46.488Z,28.80
2019-02-04T05:10:17.082Z,31.05
2019-02-04T05:12:46.124Z,30.40
2019-02-04T05:15:17.714Z,31.40
2019-02-04T05:17:46.988Z,32.35
2019-02-04T05:20:16.438Z,31.48
2019-02-04T05:22:45.869Z,31.42
2019-02-04T05:25:15.375Z,30.62
2019-02-04T05:27:44.664Z,35.58
2019-02-04T05:30:16.236Z,40.43
2019-02-04T05:32:45.295Z,36.68
2019-02-04T05:35:14.318Z,39.88
2019-02-04T05:37:43.617Z,37.20
2019-02-04T05:40:13.896Z,38.00
2019-02-04T05:42:43.025Z,36.53
2019-02-04T05:45:13.577Z,37.38
2019-02-04T05:47:42.609Z,33.53
2019-02-04T05:50:13.530Z,37.03
2019-02-04T05:52:42.664Z,30.40
2019-02-04T05:55:13.148Z,31.90
2019-02-04T05:57:42.469Z,36.98
2019-02-04T06:00:14.602Z,32.90
2019-02-04T06:02:43.603Z,31.77
2019-02-04T06:05:13.022Z,31.73
2019-02-04T06:07:42.044Z,29.77
2019-02-04T06:10:11.118Z,39.48
2019-02-04T06:12:40.193Z,31.60
2019-02-04T06:15:10.219Z,31.40
2019-02-04T06:17:39.264Z,31.37
2019-02-04T06:20:11.867Z,32.48
2019-02-04T06:22:43.700Z,45.92
2019-02-04T06:25:13.049Z,46.77
2019-02-04T06:27:42.046Z,39.10
2019-02-04T06:30:11.534Z,46.75
2019-02-04T06:32:40.541Z,37.30
2019-02-04T06:35:10.248Z,34.33
2019-02-04T06:37:39.260Z,34.38
2019-02-04T06:40:11.047Z,38.02
2019-02-04T06:42:40.633Z,36.30
2019-02-04T06:45:11.148Z,34.15
2019-02-04T06:47:40.176Z,42.98
2019-02-04T06:50:11.352Z,54.70
2019-02-04T06:52:40.681Z,55.67
2019-02-04T06:55:12.855Z,49.33
2019-02-04T06:57:42.261Z,50.67
2019-02-04T07:00:12.632Z,56.25
2019-02-04T07:02:41.680Z,64.05
2019-02-04T07:05:10.795Z,48.70
2019-02-04T07:07:40.097Z,45.63
2019-02-04T07:10:11.569Z,62.93
2019-02-04T07:12:40.924Z,47.83
2019-02-04T07:15:10.369Z,45.92
2019-02-04T07:17:39.400Z,43.08
2019-02-04T07:20:10.947Z,48.13
2019-02-04T07:22:39.904Z,48.73
2019-02-04T07:25:09.940Z,46.40
2019-02-04T07:27:38.978Z,53.03
2019-02-04T07:30:10.560Z,57.43
2019-02-04T07:32:39.591Z,50.83
2019-02-04T07:35:09.897Z,50.30
2019-02-04T07:37:39.196Z,43.58
2019-02-04T07:40:18.472Z,49.25
2019-02-04T07:42:48.318Z,47.80
2019-02-04T07:45:17.637Z,50.60
2019-02-04T07:47:46.982Z,44.35
2019-02-04T07:50:16.025Z,44.85
2019-02-04T07:52:45.057Z,41.88
2019-02-04T07:55:14.159Z,40.33
2019-02-04T07:57:43.192Z,37.93
2019-02-04T08:00:18.037Z,37.20
2019-02-04T08:02:47.345Z,36.28
2019-02-04T08:05:16.353Z,36.35
2019-02-04T08:07:45.608Z,34.45
2019-02-04T08:10:14.720Z,31.23
2019-02-04T08:12:43.876Z,32.93
2019-02-04T08:15:21.964Z,30.92
2019-02-04T08:17:50.954Z,28.85
2019-02-04T08:20:22.619Z,26.82
2019-02-04T08:22:50.552Z,29.65
2019-02-04T08:25:19.576Z,27.35
2019-02-04T08:27:48.585Z,31.35
2019-02-04T08:30:20.932Z,27.07
2019-02-04T08:32:50.145Z,26.12
2019-02-04T08:35:19.235Z,24.37
2019-02-04T08:37:48.184Z,25.57
2019-02-04T08:40:17.211Z,23.62
2019-02-04T08:42:46.211Z,24.55
2019-02-04T08:45:15.792Z,24.77
2019-02-04T08:47:44.918Z,27.48
2019-02-04T08:50:16.176Z,26.25
2019-02-04T08:52:45.383Z,26.87
2019-02-04T08:55:15.129Z,26.20
2019-02-04T08:57:44.180Z,22.65
2019-02-04T09:00:16.297Z,25.52
2019-02-04T09:02:45.328Z,24.25
2019-02-04T09:05:14.767Z,23.87
2019-02-04T09:07:44.516Z,25.25
2019-02-04T09:10:17.388Z,25.72
2019-02-04T09:12:46.372Z,28.17
2019-02-04T09:15:16.265Z,27.42
2019-02-04T09:17:45.508Z,28.07
2019-02-04T09:20:16.156Z,26.75
2019-02-04T09:22:45.281Z,25.45
2019-02-04T09:25:15.585Z,27.02
2019-02-04T09:27:44.615Z,24.85
2019-02-04T09:30:24.609Z,23.85
2019-02-04T09:32:54.196Z,23.80
2019-02-04T09:35:23.204Z,23.57
2019-02-04T09:38:08.771Z,22.77
2019-02-04T09:40:42.777Z,23.18
2019-02-04T09:43:12.133Z,23.00
2019-02-04T09:45:42.806Z,23.57
2019-02-04T09:48:15.555Z,23.27
2019-02-04T09:50:44.891Z,23.15
2019-02-04T09:53:14.724Z,25.25
2019-02-04T09:55:43.844Z,27.27
2019-02-04T09:58:12.764Z,26.90
2019-02-04T10:00:41.780Z,24.50
2019-02-04T10:03:10.661Z,28.50
2019-02-04T10:05:39.825Z,28.07
2019-02-04T10:08:09.023Z,28.35
2019-02-04T10:10:38.027Z,28.77
2019-02-04T10:13:07.087Z,26.57
2019-02-04T10:15:38.057Z,29.07
2019-02-04T10:18:08.347Z,28.02
2019-02-04T10:20:37.726Z,27.97
2019-02-04T10:23:07.038Z,27.02
2019-02-04T10:25:37.962Z,27.90
2019-02-04T10:28:08.057Z,27.93
2019-02-04T10:30:37.299Z,27.02
2019-02-04T10:33:06.446Z,25.90
2019-02-04T10:35:35.723Z,27.32
2019-02-04T10:38:05.006Z,25.52
2019-02-04T10:40:34.043Z,25.05
2019-02-04T10:43:03.536Z,25.43
2019-02-04T10:45:32.642Z,24.18
2019-02-04T10:48:01.630Z,26.33
2019-02-04T10:50:32.723Z,27.27
2019-02-04T10:53:01.747Z,24.32
2019-02-04T10:55:30.795Z,24.20
2019-02-04T10:57:59.890Z,22.22
2019-02-04T11:00:31.409Z,22.15
2019-02-04T11:03:00.760Z,24.30
2019-02-04T11:05:31.698Z,23.57
2019-02-04T11:08:01.140Z,22.63
2019-02-04T11:10:36.077Z,23.63
2019-02-04T11:13:08.467Z,21.48
2019-02-04T11:15:37.535Z,21.87
2019-02-04T11:18:06.660Z,23.27
2019-02-04T11:20:36.293Z,20.90
2019-02-04T11:23:06.604Z,20.08
2019-02-04T11:25:35.861Z,20.10
2019-02-04T11:28:05.951Z,18.82
2019-02-04T11:30:38.217Z,19.35
2019-02-04T11:33:07.650Z,18.40
2019-02-04T11:35:37.133Z,18.23
2019-02-04T11:38:06.477Z,17.57
2019-02-04T11:40:37.540Z,18.98
2019-02-04T11:43:06.741Z,19.30
2019-02-04T11:45:35.826Z,20.00
2019-02-04T11:48:07.559Z,19.03
2019-02-04T11:50:37.057Z,18.45
2019-02-04T11:53:06.150Z,20.17
2019-02-04T11:55:35.155Z,18.27
2019-02-04T11:58:07.711Z,17.98
2019-02-04T12:00:36.868Z,19.35
2019-02-04T12:03:06.245Z,18.77
2019-02-04T12:05:35.264Z,19.60
2019-02-04T12:08:04.365Z,18.75
2019-02-04T12:10:39.487Z,19.37
2019-02-04T12:13:08.841Z,20.10
2019-02-04T12:15:37.844Z,19.48
2019-02-04T12:18:06.893Z,19.67
2019-02-04T12:20:35.813Z,19.92
2019-02-04T12:23:05.533Z,20.60
2019-02-04T12:25:34.553Z,19.73
2019-02-04T12:28:03.550Z,18.20
2019-02-04T12:30:34.649Z,17.87
2019-02-04T12:33:05.008Z,18.12
2019-02-04T12:35:34.041Z,21.37
2019-02-04T12:38:03.139Z,19.20
2019-02-04T12:40:32.813Z,19.15
2019-02-04T12:43:01.944Z,17.87
2019-02-04T12:45:33.141Z,17.52
2019-02-04T12:48:02.167Z,18.15
2019-02-04T12:50:31.203Z,18.12
2019-02-04T12:53:00.236Z,19.82
2019-02-04T12:55:30.085Z,19.62
2019-02-04T12:57:59.101Z,18.87
2019-02-04T13:00:28.723Z,18.73
2019-02-04T13:02:58.096Z,18.20
2019-02-04T13:05:38.832Z,17.32
2019-02-04T13:08:09.152Z,17.90
2019-02-04T13:10:38.176Z,19.40
2019-02-04T13:13:10.068Z,18.87
2019-02-04T13:15:39.368Z,18.27
2019-02-04T13:18:08.876Z,18.85
2019-02-04T13:20:38.387Z,18.52
2019-02-04T13:23:07.494Z,18.32
2019-02-04T13:25:36.515Z,18.57
2019-02-04T13:28:07.615Z,19.67
2019-02-04T13:30:36.678Z,19.27
2019-02-04T13:33:05.696Z,18.07
2019-02-04T13:35:35.127Z,18.17
2019-02-04T13:38:04.759Z,18.62
2019-02-04T13:40:33.779Z,18.70
2019-02-04T13:43:02.828Z,18.90
2019-02-04T13:45:31.852Z,19.23
2019-02-04T13:48:00.886Z,19.23
2019-02-04T13:50:30.753Z,18.92
2019-02-04T13:53:00.197Z,21.03
2019-02-04T13:55:30.660Z,20.03
2019-02-04T13:58:00.079Z,21.17
2019-02-04T14:00:29.394Z,21.93
2019-02-04T14:02:59.859Z,19.07
2019-02-04T14:05:31.322Z,20.43
2019-02-04T14:08:01.113Z,20.07
2019-02-04T14:10:32.676Z,19.42
2019-02-04T14:13:01.740Z,19.80
2019-02-04T14:15:31.356Z,18.92
2019-02-04T14:18:00.650Z,19.23
2019-02-04T14:20:29.693Z,18.85
2019-02-04T14:22:58.712Z,20.25
2019-02-04T14:25:27.778Z,20.02
2019-02-04T14:27:56.712Z,20.40
2019-02-04T14:30:31.525Z,19.87
2019-02-04T14:33:00.464Z,19.82
2019-02-04T14:35:29.568Z,19.60
2019-02-04T14:37:59.107Z,22.20
2019-02-04T14:40:28.277Z,20.25
2019-02-04T14:43:00.936Z,21.45
2019-02-04T14:46:26.668Z,20.23
2019-02-04T14:49:46.059Z,18.53
2019-02-04T14:52:37.819Z,18.42
2019-02-04T14:56:00.540Z,20.57
2019-02-04T14:59:07.020Z,18.85
2019-02-04T15:02:17.428Z,18.77
2019-02-04T15:05:01.862Z,18.90
2019-02-04T15:07:59.371Z,18.02
2019-02-04T15:11:01.655Z,19.20
2019-02-04T15:13:46.866Z,18.98
2019-02-04T15:16:25.444Z,17.60
2019-02-04T15:19:30.620Z,17.50
2019-02-04T15:22:10.405Z,17.10
2019-02-04T15:25:19.312Z,17.15
2019-02-04T15:28:22.886Z,16.37
2019-02-04T15:31:05.805Z,17.50
2019-02-04T15:33:41.525Z,16.07
2019-02-04T15:36:54.715Z,16.80
2019-02-04T15:39:45.439Z,17.00
2019-02-04T15:42:42.912Z,18.25
2019-02-04T15:45:38.037Z,18.15
2019-02-04T15:48:15.538Z,19.42
2019-02-04T15:50:57.007Z,21.30
2019-02-04T15:53:25.968Z,21.93
2019-02-04T15:55:54.996Z,22.40
2019-02-04T15:58:24.031Z,23.85
2019-02-04T16:00:53.072Z,23.98
2019-02-04T16:03:22.058Z,26.17
2019-02-04T16:05:51.125Z,27.52
2019-02-04T16:08:20.107Z,25.68
2019-02-04T16:10:49.125Z,27.82
2019-02-04T16:13:18.374Z,28.00
2019-02-04T16:15:47.423Z,28.23
2019-02-04T16:18:16.448Z,30.65
2019-02-04T16:20:45.460Z,28.02
2019-02-04T16:23:14.504Z,30.95
2019-02-04T16:25:43.503Z,33.00
2019-02-04T16:28:12.516Z,32.20
2019-02-04T16:30:41.539Z,35.13
2019-02-04T16:33:10.558Z,33.85
2019-02-04T16:35:39.615Z,35.73
2019-02-04T16:38:08.632Z,35.35
2019-02-04T16:40:37.801Z,34.48
2019-02-04T16:43:06.829Z,35.48
2019-02-04T16:45:36.144Z,37.03
2019-02-04T16:48:05.167Z,37.70
2019-02-04T16:50:34.259Z,39.15
2019-02-04T16:53:10.485Z,38.42
2019-02-04T16:55:34.073Z,43.38
2019-02-04T16:58:03.115Z,44.53
2019-02-04T17:00:32.985Z,41.33
2019-02-04T17:03:02.847Z,40.00
2019-02-04T17:05:31.828Z,41.02
2019-02-04T17:08:00.879Z,42.48
2019-02-04T17:10:29.891Z,41.92
2019-02-04T17:12:58.946Z,40.83
2019-02-04T17:15:28.345Z,47.47
2019-02-04T17:17:57.280Z,51.17
2019-02-04T17:20:28.648Z,48.25
2019-02-04T17:22:57.932Z,44.27
2019-02-04T17:25:26.972Z,49.50
2019-02-04T17:27:55.992Z,48.85
2019-02-04T17:30:25.352Z,58.98
2019-02-04T17:32:54.708Z,62.38
2019-02-04T17:35:23.917Z,66.07
2019-02-04T17:37:52.880Z,56.58
2019-02-04T17:40:22.720Z,53.17
2019-02-04T17:42:52.764Z,59.33
2019-02-04T17:45:21.800Z,75.32
2019-02-04T17:47:51.515Z,61.63
2019-02-04T17:50:20.841Z,60.50
2019-02-04T17:52:49.916Z,58.95
2019-02-04T17:55:20.558Z,55.28
2019-02-04T17:57:49.609Z,60.60
2019-02-04T18:00:25.059Z,53.50
2019-02-04T18:02:54.034Z,53.92
2019-02-04T18:05:23.144Z,73.12
2019-02-04T18:07:52.157Z,66.25
2019-02-04T18:10:21.395Z,69.45
2019-02-04T18:12:50.763Z,78.33
2019-02-04T18:15:20.028Z,74.10
2019-02-04T18:17:49.317Z,77.08
2019-02-04T18:20:18.428Z,73.72
2019-02-04T18:22:47.441Z,73.20
2019-02-04T18:25:16.633Z,70.63
2019-02-04T18:27:45.883Z,73.07
2019-02-04T18:30:17.216Z,76.72
2019-02-04T18:32:46.277Z,80.03
2019-02-04T18:35:16.007Z,90.53
2019-02-04T18:37:45.606Z,138.20
2019-02-04T18:40:15.972Z,339.77
2019-02-04T18:42:45.147Z,319.23
2019-02-04T18:45:19.585Z,263.07
2019-02-04T18:47:48.666Z,331.43
2019-02-04T18:50:18.376Z,151.02
2019-02-04T18:52:47.820Z,170.95
2019-02-04T18:55:19.228Z,268.40
2019-02-04T18:57:48.292Z,168.50
2019-02-04T19:00:19.857Z,205.47
2019-02-04T19:02:48.883Z,260.52
2019-02-04T19:05:18.534Z,198.57
2019-02-04T19:07:47.636Z,141.80
2019-02-04T19:10:18.362Z,136.45
2019-02-04T19:12:47.421Z,188.45
2019-02-04T19:15:18.240Z,232.37
2019-02-04T19:17:47.966Z,97.22
2019-02-04T19:20:19.130Z,184.60
2019-02-04T19:22:48.092Z,163.12
2019-02-04T19:25:17.608Z,168.80
2019-02-04T19:27:46.963Z,213.27
2019-02-04T19:30:28.203Z,278.37
2019-02-04T19:32:57.493Z,263.53
2019-02-04T19:35:26.512Z,177.60
2019-02-04T19:37:56.296Z,243.40
2019-02-04T19:40:25.347Z,190.50
2019-02-04T19:42:54.372Z,254.72
2019-02-04T19:45:23.742Z,231.75
2019-02-04T19:47:53.046Z,332.50
2019-02-04T19:50:24.896Z,237.35
2019-02-04T19:52:53.850Z,263.60
2019-02-04T19:55:22.948Z,125.58
2019-02-04T19:57:52.048Z,165.22
2019-02-04T20:00:21.254Z,195.03
2019-02-04T20:02:50.972Z,204.63
2019-02-04T20:05:21.219Z,185.40
2019-02-04T20:07:50.297Z,171.47
2019-02-04T20:10:22.171Z,225.20
2019-02-04T20:12:51.940Z,182.43
2019-02-04T20:15:23.160Z,180.83
2019-02-04T20:17:52.181Z,145.22
2019-02-04T20:20:21.281Z,134.32
2019-02-04T20:22:50.317Z,118.35
2019-02-04T20:25:22.080Z,172.98
2019-02-04T20:27:51.344Z,92.02
2019-02-04T20:30:29.155Z,118.22
2019-02-04T20:32:58.136Z,130.87
2019-02-04T20:35:27.163Z,94.50
2019-02-04T20:37:56.256Z,92.08
2019-02-04T20:40:25.396Z,138.07
2019-02-04T20:42:54.414Z,141.07
2019-02-04T20:45:24.232Z,83.35
2019-02-04T20:47:53.246Z,238.73
2019-02-04T20:50:28.147Z,123.50
2019-02-04T20:52:57.185Z,85.30
2019-02-04T20:55:26.204Z,86.53
2019-02-04T20:57:55.192Z,132.37
2019-02-04T21:00:26.003Z,134.97
2019-02-04T21:02:55.116Z,116.20
2019-02-04T21:05:24.188Z,105.70
2019-02-04T21:07:53.196Z,96.35
2019-02-04T21:10:23.285Z,119.40
2019-02-04T21:12:52.446Z,126.00
2019-02-04T21:15:22.308Z,115.17
2019-02-04T21:17:51.540Z,170.50
2019-02-04T21:20:22.147Z,160.05
2019-02-04T21:22:52.657Z,155.60
2019-02-04T21:25:21.746Z,146.43
2019-02-04T21:27:51.256Z,121.90
2019-02-04T21:30:25.471Z,127.00
2019-02-04T21:32:54.427Z,135.40
2019-02-04T21:35:23.463Z,80.20
2019-02-04T21:37:52.492Z,124.03
2019-02-04T21:40:21.893Z,86.03
2019-02-04T21:42:50.916Z,90.80
2019-02-04T21:45:20.852Z,121.92
2019-02-04T21:47:50.346Z,98.35
2019-02-04T21:50:21.220Z,86.42
2019-02-04T21:52:50.351Z,84.80
2019-02-04T21:55:20.212Z,208.63
2019-02-04T21:57:49.285Z,134.82
2019-02-04T22:00:20.656Z,97.80
2019-02-04T22:02:49.692Z,82.33
2019-02-04T22:05:19.312Z,173.73
2019-02-04T22:07:48.785Z,102.20
2019-02-04T22:10:19.580Z,116.03
2019-02-04T22:12:48.694Z,74.32
2019-02-04T22:15:17.704Z,77.83
2019-02-04T22:17:46.826Z,139.27
2019-02-04T22:20:17.024Z,94.52
2019-02-04T22:22:46.343Z,89.00
2019-02-04T22:25:19.862Z,98.72
2019-02-04T22:27:48.167Z,93.75
2019-02-04T22:30:22.188Z,95.50
2019-02-04T22:32:51.202Z,90.90
2019-02-04T22:35:20.588Z,92.65
2019-02-04T22:37:49.705Z,109.12
2019-02-04T22:40:21.473Z,98.80
2019-02-04T22:42:50.680Z,142.47
2019-02-04T22:45:19.711Z,114.23
2019-02-04T22:47:48.873Z,85.07
2019-02-04T22:50:25.944Z,75.62
2019-02-04T22:52:54.951Z,79.58
2019-02-04T22:55:32.119Z,90.83
2019-02-04T22:57:55.617Z,128.13
2019-02-04T23:00:50.971Z,71.60
2019-02-04T23:03:21.727Z,95.53
2019-02-04T23:05:50.862Z,127.82
2019-02-04T23:08:20.214Z,77.55
2019-02-04T23:10:49.819Z,86.82
2019-02-04T23:13:18.887Z,70.85
2019-02-04T23:15:47.909Z,75.45
2019-02-04T23:18:16.952Z,79.32
2019-02-04T23:20:45.982Z,93.62
2019-02-04T23:23:15.299Z,131.47
2019-02-04T23:25:44.464Z,147.37
2019-02-04T23:28:13.505Z,115.88
2019-02-04T23:30:42.595Z,113.35
2019-02-04T23:33:11.657Z,98.60
2019-02-04T23:35:41.652Z,118.53
2019-02-04T23:38:11.019Z,167.90
2019-02-04T23:40:40.108Z,157.70
2019-02-04T23:43:09.287Z,156.72
2019-02-04T23:45:38.357Z,269.20
2019-02-04T23:48:08.446Z,146.05
2019-02-04T23:50:37.531Z,215.68
2019-02-04T23:53:06.564Z,159.48
2019-02-04T23:55:35.625Z,159.20
2019-02-04T23:58:04.739Z,235.90
